createdAt,value
2022-10-11T00:00:26.962Z,100.00
2022-10-11T00:01:29.119Z,100.00
2022-10-11T00:02:31.461Z,100.00
2022-10-11T00:03:33.823Z,100.00
2022-10-11T00:04:36.041Z,100.00
2022-10-11T00:05:38.215Z,100.00
2022-10-11T00:06:43.278Z,100.00
2022-10-11T00:07:45.407Z,100.00
2022-10-11T00:08:47.566Z,100.00
2022-10-11T00:09:49.687Z,100.00
2022-10-11T00:10:59.538Z,100.00
2022-10-11T00:12:01.872Z,100.00
2022-10-11T00:13:04.875Z,100.00
2022-10-11T00:14:07.008Z,100.00
2022-10-11T00:15:12.022Z,100.00
2022-10-11T00:16:15.454Z,100.00
2022-10-11T00:17:17.627Z,100.00
2022-10-11T00:18:20.026Z,100.00
2022-10-11T00:19:22.288Z,100.00
2022-10-11T00:20:24.746Z,100.00
2022-10-11T00:21:27.151Z,100.00
2022-10-11T00:22:29.251Z,100.00
2022-10-11T00:23:32.380Z,100.00
2022-10-11T00:24:34.594Z,100.00
2022-10-11T00:25:36.727Z,100.00
2022-10-11T00:26:41.172Z,100.00
2022-10-11T00:27:46.640Z,100.00
2022-10-11T00:28:52.159Z,100.00
2022-10-11T00:29:54.590Z,100.00
2022-10-11T00:30:57.043Z,100.00
2022-10-11T00:31:59.428Z,100.00
2022-10-11T00:33:01.583Z,100.00
2022-10-11T00:34:03.809Z,100.00
2022-10-11T00:35:07.533Z,100.00
2022-10-11T00:36:13.662Z,100.00
2022-10-11T00:37:15.906Z,100.00
2022-10-11T00:38:18.360Z,100.00
2022-10-11T00:39:20.533Z,100.00
2022-10-11T00:40:22.840Z,100.00
2022-10-11T00:41:25.062Z,100.00
2022-10-11T00:42:27.491Z,100.00
2022-10-11T00:43:31.408Z,100.00
2022-10-11T00:44:33.821Z,100.00
2022-10-11T00:45:35.909Z,100.00
2022-10-11T00:46:40.647Z,100.00
2022-10-11T00:47:42.800Z,100.00
2022-10-11T00:48:49.659Z,100.00
2022-10-11T00:49:59.188Z,100.00
2022-10-11T00:51:04.974Z,100.00
2022-10-11T00:52:29.184Z,100.00
2022-10-11T00:53:33.004Z,100.00
2022-10-11T00:54:40.771Z,100.00
2022-10-11T00:55:51.739Z,100.00
2022-10-11T00:56:59.451Z,100.00
2022-10-11T00:58:01.675Z,100.00
2022-10-11T00:59:08.471Z,100.00
2022-10-11T01:00:13.655Z,100.00
2022-10-11T01:01:15.852Z,100.00
2022-10-11T01:02:19.350Z,100.00
2022-10-11T01:03:26.320Z,100.00
2022-10-11T01:04:28.394Z,100.00
2022-10-11T01:05:31.852Z,100.00
2022-10-11T01:06:34.688Z,100.00
2022-10-11T01:07:39.150Z,100.00
2022-10-11T01:08:42.067Z,100.00
2022-10-11T01:09:44.601Z,100.00
2022-10-11T01:10:46.942Z,100.00
2022-10-11T01:11:51.253Z,100.00
2022-10-11T01:13:31.743Z,100.00
2022-10-11T01:14:48.322Z,100.00
2022-10-11T01:16:14.699Z,100.00
2022-10-11T01:17:51.653Z,100.00
2022-10-11T01:19:04.438Z,100.00
2022-10-11T01:20:06.533Z,100.00
2022-10-11T01:21:17.167Z,100.00
2022-10-11T01:22:43.684Z,100.00
2022-10-11T01:24:04.662Z,100.00
2022-10-11T01:25:16.868Z,100.00
2022-10-11T01:28:33.605Z,100.00
2022-10-11T01:29:45.953Z,100.00
2022-10-11T01:30:50.883Z,100.00
2022-10-11T01:32:05.663Z,100.00
2022-10-11T01:33:13.673Z,100.00
2022-10-11T01:34:50.018Z,100.00
2022-10-11T01:35:59.936Z,100.00
2022-10-11T01:37:13.815Z,100.00
2022-10-11T01:38:34.137Z,100.00
2022-10-11T01:39:43.419Z,100.00
2022-10-11T01:40:57.552Z,100.00
2022-10-11T01:42:03.169Z,100.00
2022-10-11T01:43:06.108Z,100.00
2022-10-11T01:44:11.292Z,100.00
2022-10-11T01:45:17.327Z,100.00
2022-10-11T01:46:20.957Z,100.00
2022-10-11T01:47:24.394Z,100.00
2022-10-11T01:48:26.590Z,100.00
2022-10-11T01:49:28.777Z,100.00
2022-10-11T01:50:35.769Z,100.00
2022-10-11T01:51:46.358Z,100.00
2022-10-11T01:52:50.620Z,100.00
2022-10-11T01:54:04.635Z,100.00
2022-10-11T01:55:22.125Z,100.00
2022-10-11T01:56:39.431Z,100.00
2022-10-11T01:57:50.063Z,100.00
2022-10-11T01:59:00.717Z,100.00
2022-10-11T02:00:31.636Z,100.00
2022-10-11T02:01:59.303Z,100.00
2022-10-11T02:03:19.241Z,100.00
2022-10-11T02:04:51.471Z,100.00
2022-10-11T02:06:09.104Z,100.00
2022-10-11T02:07:53.839Z,100.00
2022-10-11T02:09:08.188Z,100.00
2022-10-11T02:10:23.119Z,100.00
2022-10-11T02:11:34.256Z,100.00
2022-10-11T02:12:42.030Z,100.00
2022-10-11T02:14:10.828Z,100.00
2022-10-11T02:15:14.655Z,100.00
2022-10-11T02:16:21.377Z,100.00
2022-10-11T02:17:31.007Z,100.00
2022-10-11T02:18:36.354Z,100.00
2022-10-11T02:19:45.061Z,100.00
2022-10-11T02:20:48.891Z,100.00
2022-10-11T02:21:55.322Z,100.00
2022-10-11T02:23:03.466Z,100.00
2022-10-11T02:24:24.403Z,100.00
2022-10-11T02:25:30.397Z,100.00
2022-10-11T02:26:34.881Z,100.00
2022-10-11T02:27:40.643Z,100.00
2022-10-11T02:28:44.491Z,100.00
2022-10-11T02:29:49.492Z,100.00
2022-10-11T02:30:53.638Z,100.00
2022-10-11T02:31:58.876Z,100.00
2022-10-11T02:33:05.455Z,100.00
2022-10-11T02:34:13.931Z,100.00
2022-10-11T02:35:17.297Z,100.00
2022-10-11T02:36:52.275Z,100.00
2022-10-11T02:38:14.258Z,100.00
2022-10-11T02:39:24.643Z,100.00
2022-10-11T02:40:33.289Z,100.00
2022-10-11T02:41:40.687Z,100.00
2022-10-11T02:42:48.750Z,100.00
2022-10-11T02:44:03.343Z,100.00
2022-10-11T02:45:20.611Z,100.00
2022-10-11T02:46:24.052Z,100.00
2022-10-11T02:47:29.714Z,100.00
2022-10-11T02:48:33.561Z,100.00
2022-10-11T02:49:36.101Z,100.00
2022-10-11T02:50:42.023Z,100.00
2022-10-11T02:51:44.203Z,100.00
2022-10-11T02:52:46.316Z,100.00
2022-10-11T02:53:48.542Z,100.00
2022-10-11T02:54:50.764Z,100.00
2022-10-11T02:55:55.008Z,100.00
2022-10-11T02:56:57.251Z,100.00
2022-10-11T02:57:59.422Z,100.00
2022-10-11T02:59:01.528Z,100.00
2022-10-11T03:00:05.335Z,100.00
2022-10-11T03:01:07.683Z,100.00
2022-10-11T03:02:09.996Z,100.00
2022-10-11T03:03:12.119Z,100.00
2022-10-11T03:04:14.304Z,100.00
2022-10-11T03:05:16.562Z,100.00
2022-10-11T03:06:18.663Z,100.00
2022-10-11T03:07:20.728Z,100.00
2022-10-11T03:08:22.955Z,100.00
2022-10-11T03:09:25.195Z,100.00
2022-10-11T03:10:27.361Z,100.00
2022-10-11T03:11:29.576Z,100.00
2022-10-11T03:12:32.174Z,100.00
2022-10-11T03:13:34.358Z,100.00
2022-10-11T03:14:36.586Z,100.00
2022-10-11T03:15:38.744Z,100.00
2022-10-11T03:16:40.999Z,100.00
2022-10-11T03:17:43.107Z,100.00
2022-10-11T03:18:45.218Z,100.00
2022-10-11T03:19:47.646Z,100.00
2022-10-11T03:20:49.833Z,100.00
2022-10-11T03:21:52.300Z,100.00
2022-10-11T03:22:54.434Z,100.00
2022-10-11T03:23:56.567Z,100.00
2022-10-11T03:25:03.538Z,100.00
2022-10-11T03:26:07.060Z,100.00
2022-10-11T03:27:09.593Z,100.00
2022-10-11T03:28:11.864Z,100.00
2022-10-11T03:29:14.062Z,100.00
2022-10-11T03:30:18.308Z,100.00
2022-10-11T03:31:22.020Z,100.00
2022-10-11T03:32:24.177Z,100.00
2022-10-11T03:33:26.336Z,100.00
2022-10-11T03:34:28.695Z,100.00
2022-10-11T03:35:30.847Z,100.00
2022-10-11T03:36:33.130Z,100.00
2022-10-11T03:37:35.247Z,100.00
2022-10-11T03:38:37.545Z,100.00
2022-10-11T03:39:39.774Z,100.00
2022-10-11T03:40:43.650Z,100.00
2022-10-11T03:41:45.770Z,100.00
2022-10-11T03:42:47.973Z,100.00
2022-10-11T03:43:50.086Z,100.00
2022-10-11T03:44:52.290Z,100.00
2022-10-11T03:45:54.448Z,100.00
2022-10-11T03:46:56.570Z,100.00
2022-10-11T03:47:58.751Z,100.00
2022-10-11T03:49:00.901Z,100.00
2022-10-11T03:50:07.207Z,100.00
2022-10-11T03:51:09.325Z,100.00
2022-10-11T03:52:11.870Z,100.00
2022-10-11T03:53:14.045Z,100.00
2022-10-11T03:54:16.155Z,100.00
2022-10-11T03:55:18.286Z,100.00
2022-10-11T03:56:20.446Z,100.00
2022-10-11T03:57:22.585Z,100.00
2022-10-11T03:58:25.036Z,100.00
2022-10-11T03:59:27.257Z,100.00
2022-10-11T04:00:29.394Z,100.00
2022-10-11T04:01:35.750Z,100.00
2022-10-11T04:02:39.320Z,100.00
2022-10-11T04:03:41.567Z,100.00
2022-10-11T04:04:43.771Z,100.00
2022-10-11T04:05:45.913Z,100.00
2022-10-11T04:06:48.032Z,100.00
2022-10-11T04:07:50.436Z,100.00
2022-10-11T04:08:52.579Z,100.00
2022-10-11T04:09:54.786Z,100.00
2022-10-11T04:10:57.090Z,100.00
2022-10-11T04:11:59.281Z,100.00
2022-10-11T04:13:01.794Z,100.00
2022-10-11T04:14:03.899Z,100.00
2022-10-11T04:15:07.186Z,100.00
2022-10-11T04:16:09.304Z,100.00
2022-10-11T04:17:11.532Z,100.00
2022-10-11T04:18:13.731Z,100.00
2022-10-11T04:19:16.383Z,100.00
2022-10-11T04:20:18.668Z,100.00
2022-10-11T04:21:20.842Z,100.00
2022-10-11T04:22:22.969Z,100.00
2022-10-11T04:23:25.134Z,100.00
2022-10-11T04:24:27.323Z,100.00
2022-10-11T04:25:29.422Z,100.00
2022-10-11T04:26:31.718Z,100.00
2022-10-11T04:27:34.142Z,100.00
2022-10-11T04:28:36.380Z,100.00
2022-10-11T04:29:38.703Z,100.00
2022-10-11T04:30:40.805Z,100.00
2022-10-11T04:31:42.959Z,100.00
2022-10-11T04:32:45.247Z,100.00
2022-10-11T04:33:47.483Z,100.00
2022-10-11T04:34:49.897Z,100.00
2022-10-11T04:35:56.070Z,100.00
2022-10-11T04:36:58.254Z,100.00
2022-10-11T04:38:00.397Z,100.00
2022-10-11T04:39:02.633Z,100.00
2022-10-11T04:40:07.169Z,100.00
2022-10-11T04:41:12.718Z,100.00
2022-10-11T04:42:15.046Z,100.00
2022-10-11T04:43:18.616Z,100.00
2022-10-11T04:44:20.819Z,100.00
2022-10-11T04:45:23.346Z,100.00
2022-10-11T04:46:25.896Z,100.00
2022-10-11T04:47:28.135Z,100.00
2022-10-11T04:48:30.678Z,100.00
2022-10-11T04:49:32.809Z,100.00
2022-10-11T04:50:35.472Z,100.00
2022-10-11T04:51:43.188Z,100.00
2022-10-11T04:52:45.300Z,100.00
2022-10-11T04:53:48.580Z,100.00
2022-10-11T04:54:50.842Z,100.00
2022-10-11T04:56:01.262Z,100.00
2022-10-11T04:57:03.725Z,100.00
2022-10-11T04:58:05.844Z,100.00
2022-10-11T04:59:08.055Z,100.00
2022-10-11T05:00:10.836Z,100.00
2022-10-11T05:01:12.934Z,100.00
2022-10-11T05:02:15.090Z,100.00
2022-10-11T05:03:17.347Z,100.00
2022-10-11T05:04:19.811Z,100.00
2022-10-11T05:05:21.915Z,100.00
2022-10-11T05:06:24.241Z,100.00
2022-10-11T05:07:26.463Z,100.00
2022-10-11T05:08:28.863Z,100.00
2022-10-11T05:09:30.967Z,100.00
2022-10-11T05:10:33.061Z,100.00
2022-10-11T05:11:35.198Z,100.00
2022-10-11T05:12:37.361Z,100.00
2022-10-11T05:13:39.534Z,100.00
2022-10-11T05:14:41.751Z,100.00
2022-10-11T05:15:43.869Z,100.00
2022-10-11T05:16:46.007Z,100.00
2022-10-11T05:17:48.156Z,100.00
2022-10-11T05:18:50.459Z,100.00
2022-10-11T05:19:52.894Z,100.00
2022-10-11T05:21:06.878Z,100.00
2022-10-11T05:22:09.219Z,100.00
2022-10-11T05:23:11.547Z,100.00
2022-10-11T05:24:13.735Z,100.00
2022-10-11T05:25:16.184Z,100.00
2022-10-11T05:26:20.389Z,100.00
2022-10-11T05:27:22.514Z,100.00
2022-10-11T05:28:24.938Z,100.00
2022-10-11T05:29:27.170Z,100.00
2022-10-11T05:30:29.410Z,100.00
2022-10-11T05:31:32.500Z,100.00
2022-10-11T05:32:34.667Z,100.00
2022-10-11T05:33:37.064Z,100.00
2022-10-11T05:34:39.164Z,100.00
2022-10-11T05:35:41.312Z,100.00
2022-10-11T05:36:43.401Z,100.00
2022-10-11T05:37:45.521Z,100.00
2022-10-11T05:38:47.847Z,100.00
2022-10-11T05:39:49.988Z,100.00
2022-10-11T05:40:52.199Z,100.00
2022-10-11T05:41:54.375Z,100.00
2022-10-11T05:42:56.464Z,100.00
2022-10-11T05:43:58.606Z,100.00
2022-10-11T05:45:00.732Z,100.00
2022-10-11T05:46:03.477Z,100.00
2022-10-11T05:47:05.950Z,100.00
2022-10-11T05:48:08.809Z,100.00
2022-10-11T05:49:10.942Z,100.00
2022-10-11T05:50:13.170Z,100.00
2022-10-11T05:51:15.270Z,100.00
2022-10-11T05:52:21.528Z,100.00
2022-10-11T05:53:23.664Z,100.00
2022-10-11T05:54:28.708Z,100.00
2022-10-11T05:55:36.216Z,100.00
2022-10-11T05:56:38.322Z,100.00
2022-10-11T05:57:40.472Z,100.00
2022-10-11T05:58:42.567Z,100.00
2022-10-11T05:59:44.691Z,100.00
2022-10-11T06:00:46.825Z,100.00
2022-10-11T06:01:49.323Z,100.00
2022-10-11T06:02:51.487Z,100.00
2022-10-11T06:03:54.505Z,100.00
2022-10-11T06:04:56.602Z,100.00
2022-10-11T06:06:02.384Z,100.00
2022-10-11T06:07:05.099Z,100.00
2022-10-11T06:08:08.750Z,100.00
2022-10-11T06:09:10.911Z,100.00
2022-10-11T06:10:13.026Z,100.00
2022-10-11T06:11:19.401Z,100.00
2022-10-11T06:12:21.745Z,100.00
2022-10-11T06:13:23.830Z,100.00
2022-10-11T06:14:26.334Z,100.00
2022-10-11T06:15:29.515Z,100.00
2022-10-11T06:16:31.645Z,100.00
2022-10-11T06:17:33.729Z,100.00
2022-10-11T06:18:36.375Z,100.00
2022-10-11T06:19:38.570Z,100.00
2022-10-11T06:20:40.690Z,100.00
2022-10-11T06:21:42.907Z,100.00
2022-10-11T06:22:45.130Z,100.00
2022-10-11T06:23:51.337Z,100.00
2022-10-11T06:24:53.435Z,100.00
2022-10-11T06:26:05.915Z,100.00
2022-10-11T06:27:08.526Z,100.00
2022-10-11T06:28:10.729Z,100.00
2022-10-11T06:29:12.893Z,100.00
2022-10-11T06:30:15.224Z,100.00
2022-10-11T06:31:17.369Z,100.00
2022-10-11T06:32:19.822Z,100.00
2022-10-11T06:33:22.844Z,100.00
2022-10-11T06:34:25.036Z,100.00
2022-10-11T06:35:27.154Z,100.00
2022-10-11T06:36:29.866Z,100.00
2022-10-11T06:37:32.039Z,100.00
2022-10-11T06:38:34.435Z,100.00
2022-10-11T06:39:36.571Z,100.00
2022-10-11T06:40:38.767Z,100.00
2022-10-11T06:41:40.974Z,100.00
2022-10-11T06:42:43.115Z,100.00
2022-10-11T06:43:45.945Z,100.00
2022-10-11T06:44:48.053Z,100.00
2022-10-11T06:45:50.178Z,100.00
2022-10-11T06:46:52.388Z,100.00
2022-10-11T06:47:54.490Z,100.00
2022-10-11T06:48:56.724Z,100.00
2022-10-11T06:49:58.862Z,100.00
2022-10-11T06:51:01.181Z,100.00
2022-10-11T06:52:03.586Z,100.00
2022-10-11T06:53:08.818Z,100.00
2022-10-11T06:54:11.030Z,100.00
2022-10-11T06:55:13.601Z,100.00
2022-10-11T06:56:15.747Z,100.00
2022-10-11T06:57:17.988Z,100.00
2022-10-11T06:58:20.135Z,100.00
2022-10-11T06:59:22.262Z,100.00
2022-10-11T07:00:24.570Z,100.00
2022-10-11T07:01:27.282Z,100.00
2022-10-11T07:02:29.468Z,100.00
2022-10-11T07:03:32.238Z,100.00
2022-10-11T07:04:34.373Z,100.00
2022-10-11T07:05:36.527Z,100.00
2022-10-11T07:06:40.898Z,100.00
2022-10-11T07:07:43.438Z,100.00
2022-10-11T07:08:46.624Z,100.00
2022-10-11T07:09:48.770Z,100.00
2022-10-11T07:10:51.563Z,100.00
2022-10-11T07:11:53.777Z,100.00
2022-10-11T07:12:55.946Z,100.00
2022-10-11T07:14:04.402Z,100.00
2022-10-11T07:15:07.058Z,100.00
2022-10-11T07:16:12.142Z,100.00
2022-10-11T07:17:14.305Z,100.00
2022-10-11T07:18:16.454Z,100.00
2022-10-11T07:19:18.645Z,100.00
2022-10-11T07:20:20.818Z,93.96
2022-10-11T07:21:22.978Z,89.11
2022-10-11T07:22:25.135Z,89.17
2022-10-11T07:23:27.264Z,85.89
2022-10-11T07:24:29.532Z,83.75
2022-10-11T07:25:31.773Z,83.48
2022-10-11T07:26:38.219Z,82.73
2022-10-11T07:28:13.383Z,80.75
2022-10-11T07:29:15.684Z,82.49
2022-10-11T07:30:17.827Z,79.66
2022-10-11T07:31:22.457Z,79.18
2022-10-11T07:32:24.593Z,79.25
2022-10-11T07:33:26.734Z,80.17
2022-10-11T07:34:28.872Z,78.36
2022-10-11T07:35:31.094Z,77.66
2022-10-11T07:36:33.270Z,74.04
2022-10-11T07:37:35.436Z,71.50
2022-10-11T07:38:45.528Z,69.39
2022-10-11T07:39:49.202Z,69.39
2022-10-11T07:40:51.381Z,67.67
2022-10-11T07:41:53.458Z,69.68
2022-10-11T07:42:56.907Z,68.78
2022-10-11T07:43:59.187Z,65.59
2022-10-11T07:45:01.352Z,62.36
2022-10-11T07:46:04.932Z,63.17
2022-10-11T07:47:11.050Z,64.48
2022-10-11T07:48:13.665Z,61.55
2022-10-11T07:49:15.788Z,61.75
2022-10-11T07:50:18.005Z,63.89
2022-10-11T07:51:22.773Z,63.90
2022-10-11T07:52:24.921Z,63.66
2022-10-11T07:53:27.044Z,65.80
2022-10-11T07:54:29.152Z,64.28
2022-10-11T07:55:35.452Z,61.29
2022-10-11T07:56:38.180Z,60.06
2022-10-11T07:57:40.326Z,60.99
2022-10-11T07:58:43.183Z,59.44
2022-10-11T07:59:49.937Z,60.49
2022-10-11T08:00:53.820Z,60.11
2022-10-11T08:01:56.010Z,62.17
2022-10-11T08:02:58.132Z,62.70
2022-10-11T08:04:00.400Z,63.87
2022-10-11T08:05:02.801Z,66.41
2022-10-11T08:06:09.460Z,66.28
2022-10-11T08:07:11.893Z,64.89
2022-10-11T08:08:14.227Z,63.87
2022-10-11T08:09:16.365Z,61.43
2022-10-11T08:10:18.502Z,60.85
2022-10-11T08:11:28.725Z,60.76
2022-10-11T08:12:30.839Z,58.86
2022-10-11T08:13:33.391Z,59.71
2022-10-11T08:14:35.503Z,60.14
2022-10-11T08:15:37.669Z,58.93
2022-10-11T08:16:40.363Z,59.68
2022-10-11T08:17:42.534Z,60.71
2022-10-11T08:18:44.995Z,60.56
2022-10-11T08:19:47.355Z,60.79
2022-10-11T08:20:49.579Z,62.48
2022-10-11T08:21:51.702Z,60.99
2022-10-11T08:22:53.822Z,60.38
2022-10-11T08:23:56.110Z,58.96
2022-10-11T08:24:58.219Z,59.45
2022-10-11T08:26:00.346Z,60.39
2022-10-11T08:27:02.543Z,58.10
2022-10-11T08:28:04.885Z,55.27
2022-10-11T08:29:07.287Z,55.72
2022-10-11T08:30:10.263Z,55.45
2022-10-11T08:31:14.895Z,52.71
2022-10-11T08:32:17.315Z,52.22
2022-10-11T08:33:20.990Z,51.98
2022-10-11T08:34:23.174Z,52.39
2022-10-11T08:35:25.380Z,49.86
2022-10-11T08:36:27.612Z,53.21
2022-10-11T08:37:29.790Z,52.22
2022-10-11T08:38:32.659Z,52.61
2022-10-11T08:39:34.896Z,53.35
2022-10-11T08:40:37.194Z,56.26
2022-10-11T08:41:46.154Z,54.77
2022-10-11T08:43:06.338Z,51.98
2022-10-11T08:44:41.392Z,52.33
2022-10-11T08:45:55.635Z,50.41
2022-10-11T08:47:04.880Z,54.07
2022-10-11T08:48:12.371Z,51.70
2022-10-11T08:49:15.615Z,48.98
2022-10-11T08:50:21.852Z,50.47
2022-10-11T08:51:27.109Z,51.51
2022-10-11T08:52:46.306Z,51.93
2022-10-11T08:54:07.173Z,50.26
2022-10-11T08:55:22.873Z,52.97
2022-10-11T08:56:27.366Z,52.13
2022-10-11T08:57:33.775Z,52.25
2022-10-11T08:59:02.056Z,51.31
2022-10-11T09:00:07.475Z,49.80
2022-10-11T09:01:18.027Z,48.76
2022-10-11T09:02:49.211Z,50.84
2022-10-11T09:03:52.453Z,49.56
2022-10-11T09:04:55.939Z,49.44
2022-10-11T09:06:14.685Z,50.27
2022-10-11T09:08:01.331Z,53.74
2022-10-11T09:09:45.738Z,57.10
2022-10-11T09:11:38.920Z,59.21
2022-10-11T09:12:53.462Z,58.66
2022-10-11T09:14:11.093Z,60.50
2022-10-11T09:15:32.806Z,61.42
2022-10-11T09:16:50.114Z,60.83
2022-10-11T09:18:29.235Z,59.91
2022-10-11T09:19:56.307Z,58.80
2022-10-11T09:21:26.430Z,59.40
2022-10-11T09:22:51.879Z,60.65
2022-10-11T09:24:17.782Z,57.08
2022-10-11T09:25:47.656Z,57.29
2022-10-11T09:26:57.674Z,56.24
2022-10-11T09:28:05.542Z,55.86
2022-10-11T09:29:22.348Z,57.40
2022-10-11T09:30:24.634Z,59.53
2022-10-11T09:31:28.574Z,57.78
2022-10-11T09:32:39.862Z,54.88
2022-10-11T09:33:50.406Z,49.25
2022-10-11T09:34:59.824Z,49.37
2022-10-11T09:36:12.666Z,50.88
2022-10-11T09:37:38.149Z,51.71
2022-10-11T09:38:54.377Z,52.26
2022-10-11T09:40:03.594Z,51.18
2022-10-11T09:41:36.596Z,51.40
2022-10-11T09:42:38.720Z,51.92
2022-10-11T09:43:40.907Z,52.04
2022-10-11T09:44:51.545Z,51.95
2022-10-11T09:45:53.743Z,50.91
2022-10-11T09:46:57.633Z,52.06
2022-10-11T09:48:02.207Z,49.92
2022-10-11T09:49:08.917Z,49.78
2022-10-11T09:50:21.923Z,53.64
2022-10-11T09:51:25.998Z,52.28
2022-10-11T09:52:28.217Z,52.88
2022-10-11T09:53:56.309Z,50.84
2022-10-11T09:55:01.688Z,51.06
2022-10-11T09:56:05.223Z,51.42
2022-10-11T09:57:20.140Z,49.30
2022-10-11T09:58:34.377Z,48.05
2022-10-11T09:59:37.569Z,48.52
2022-10-11T10:00:39.742Z,48.41
2022-10-11T10:01:41.931Z,46.71
2022-10-11T10:02:49.736Z,46.70
2022-10-11T10:04:16.896Z,42.95
2022-10-11T10:05:23.072Z,44.34
2022-10-11T10:06:27.521Z,46.61
2022-10-11T10:07:32.258Z,47.94
2022-10-11T10:08:35.777Z,48.51
2022-10-11T10:09:37.958Z,47.75
2022-10-11T10:10:55.774Z,46.54
2022-10-11T10:12:12.162Z,45.35
2022-10-11T10:13:23.971Z,45.14
2022-10-11T10:14:30.580Z,45.70
2022-10-11T10:15:37.460Z,44.95
2022-10-11T10:16:39.598Z,43.31
2022-10-11T10:17:49.515Z,45.12
2022-10-11T10:18:55.410Z,44.85
2022-10-11T10:20:00.445Z,42.99
2022-10-11T10:21:03.890Z,42.88
2022-10-11T10:22:06.525Z,41.83
2022-10-11T10:23:24.558Z,42.49
2022-10-11T10:24:42.578Z,40.05
2022-10-11T10:25:51.054Z,40.76
2022-10-11T10:27:14.549Z,42.06
2022-10-11T10:28:27.310Z,40.72
2022-10-11T10:29:29.467Z,40.37
2022-10-11T10:30:35.366Z,40.99
2022-10-11T10:32:02.034Z,40.82
2022-10-11T10:33:07.285Z,40.18
2022-10-11T10:34:23.634Z,39.36
2022-10-11T10:35:41.464Z,40.23
2022-10-11T10:36:47.631Z,38.80
2022-10-11T10:38:11.615Z,39.10
2022-10-11T10:39:28.423Z,40.47
2022-10-11T10:40:36.231Z,40.63
2022-10-11T10:41:38.362Z,41.15
2022-10-11T10:42:40.788Z,40.15
2022-10-11T10:43:45.655Z,40.31
2022-10-11T10:44:56.864Z,41.64
2022-10-11T10:46:05.045Z,42.04
2022-10-11T10:47:44.922Z,42.54
2022-10-11T10:49:28.315Z,44.31
2022-10-11T10:50:18.816Z,42.83
2022-10-11T10:51:25.605Z,45.11
2022-10-11T10:52:46.029Z,45.96
2022-10-11T10:53:58.203Z,46.28
2022-10-11T10:55:12.323Z,46.99
2022-10-11T10:56:28.380Z,45.20
2022-10-11T10:58:00.253Z,44.99
2022-10-11T10:59:26.598Z,41.75
2022-10-11T11:00:38.370Z,41.97
2022-10-11T11:01:55.736Z,40.85
2022-10-11T11:03:05.656Z,39.64
2022-10-11T11:04:27.041Z,38.37
2022-10-11T11:05:46.018Z,37.78
2022-10-11T11:06:51.060Z,37.38
2022-10-11T11:08:12.754Z,36.48
2022-10-11T11:09:40.427Z,37.70
2022-10-11T11:10:54.010Z,39.21
2022-10-11T11:12:05.002Z,38.73
2022-10-11T11:13:32.535Z,38.40
2022-10-11T11:15:37.984Z,40.53
2022-10-11T11:17:11.338Z,39.89
2022-10-11T11:18:29.597Z,37.84
2022-10-11T11:19:49.495Z,37.75
2022-10-11T11:20:51.571Z,39.64
2022-10-11T11:21:58.211Z,39.71
2022-10-11T11:23:01.052Z,39.84
2022-10-11T11:24:17.390Z,39.48
2022-10-11T11:25:34.996Z,38.58
2022-10-11T11:26:49.919Z,38.73
2022-10-11T11:28:02.759Z,38.59
2022-10-11T11:29:13.740Z,36.93
2022-10-11T11:30:23.366Z,37.66
2022-10-11T11:32:06.448Z,37.67
2022-10-11T11:33:53.343Z,36.89
2022-10-11T11:35:11.311Z,39.13
2022-10-11T11:36:26.084Z,38.57
2022-10-11T11:37:38.697Z,38.00
2022-10-11T11:38:44.655Z,38.81
2022-10-11T11:39:51.520Z,41.56
2022-10-11T11:40:58.577Z,41.75
2022-10-11T11:42:21.151Z,39.66
2022-10-11T11:43:26.940Z,38.05
2022-10-11T11:44:37.876Z,37.94
2022-10-11T11:45:48.905Z,38.19
2022-10-11T11:47:06.924Z,37.45
2022-10-11T11:48:17.708Z,38.21
2022-10-11T11:49:28.238Z,35.46
2022-10-11T11:50:34.878Z,36.63
2022-10-11T11:51:43.802Z,38.77
2022-10-11T11:52:48.551Z,38.61
2022-10-11T11:54:28.229Z,37.18
2022-10-11T11:55:38.429Z,38.69
2022-10-11T11:56:46.321Z,38.27
2022-10-11T11:58:07.092Z,38.87
2022-10-11T11:59:40.681Z,38.11
2022-10-11T12:00:58.498Z,38.32
2022-10-11T12:02:32.481Z,37.16
2022-10-11T12:03:42.011Z,38.57
2022-10-11T12:04:48.394Z,38.58
2022-10-11T12:06:12.227Z,39.04
2022-10-11T12:07:18.389Z,40.30
2022-10-11T12:08:27.438Z,39.12
2022-10-11T12:09:30.762Z,40.29
2022-10-11T12:10:55.510Z,40.10
2022-10-11T12:12:01.462Z,42.41
2022-10-11T12:13:09.919Z,41.53
2022-10-11T12:14:37.090Z,41.13
2022-10-11T12:15:39.463Z,40.40
2022-10-11T12:17:06.083Z,39.70
2022-10-11T12:18:15.499Z,41.19
2022-10-11T12:19:20.205Z,39.32
2022-10-11T12:20:27.166Z,40.04
2022-10-11T12:21:47.887Z,40.56
2022-10-11T12:22:50.038Z,39.19
2022-10-11T12:24:10.048Z,39.27
2022-10-11T12:25:18.366Z,39.01
2022-10-11T12:26:37.611Z,37.45
2022-10-11T12:27:43.770Z,38.65
2022-10-11T12:28:59.498Z,40.61
2022-10-11T12:30:01.733Z,42.19
2022-10-11T12:31:06.919Z,42.52
2022-10-11T12:32:11.089Z,42.62
2022-10-11T12:33:23.676Z,42.71
2022-10-11T12:35:54.856Z,40.49
2022-10-11T12:36:57.051Z,41.30
2022-10-11T12:38:16.514Z,41.16
2022-10-11T12:39:18.599Z,40.26
2022-10-11T12:40:41.679Z,39.91
2022-10-11T12:41:55.715Z,41.26
2022-10-11T12:43:16.080Z,40.70
2022-10-11T12:44:18.129Z,41.14
2022-10-11T12:45:20.249Z,41.39
2022-10-11T12:46:28.563Z,42.47
2022-10-11T12:48:07.556Z,42.68
2022-10-11T12:49:33.698Z,43.60
2022-10-11T12:51:03.677Z,43.23
2022-10-11T12:52:24.877Z,44.29
2022-10-11T12:54:33.319Z,43.42
2022-10-11T12:55:53.064Z,43.16
2022-10-11T12:57:22.651Z,40.91
2022-10-11T12:58:29.016Z,40.81
2022-10-11T12:59:32.341Z,42.03
2022-10-11T13:00:40.306Z,41.78
2022-10-11T13:01:55.636Z,41.10
2022-10-11T13:03:00.852Z,42.94
2022-10-11T13:04:11.746Z,41.49
2022-10-11T13:05:26.044Z,41.59
2022-10-11T13:06:32.419Z,41.08
2022-10-11T13:07:35.609Z,41.08
2022-10-11T13:08:43.154Z,41.17
2022-10-11T13:09:48.952Z,39.11
2022-10-11T13:10:52.649Z,38.55
2022-10-11T13:12:20.593Z,38.36
2022-10-11T13:13:37.429Z,39.92
2022-10-11T13:14:46.564Z,39.66
2022-10-11T13:15:51.674Z,40.38
2022-10-11T13:17:02.783Z,40.28
2022-10-11T13:18:05.023Z,42.01
2022-10-11T13:19:13.658Z,42.82
2022-10-11T13:20:15.756Z,42.41
2022-10-11T13:21:38.561Z,42.71
2022-10-11T13:22:40.890Z,44.80
2022-10-11T13:23:43.169Z,44.20
2022-10-11T13:24:45.421Z,45.81
2022-10-11T13:25:47.844Z,46.18
2022-10-11T13:26:52.141Z,46.31
2022-10-11T13:27:57.602Z,48.26
2022-10-11T13:29:00.787Z,48.85
2022-10-11T13:30:08.569Z,49.52
2022-10-11T13:31:10.985Z,50.51
2022-10-11T13:32:16.552Z,52.63
2022-10-11T13:33:23.594Z,51.73
2022-10-11T13:34:26.104Z,50.30
2022-10-11T13:35:37.291Z,51.78
2022-10-11T13:36:39.632Z,52.17
2022-10-11T13:37:46.239Z,51.38
2022-10-11T13:38:55.435Z,49.98
2022-10-11T13:39:58.306Z,51.35
2022-10-11T13:41:04.345Z,51.93
2022-10-11T13:42:10.814Z,50.93
2022-10-11T13:43:15.582Z,52.85
2022-10-11T13:44:17.909Z,53.98
2022-10-11T13:45:23.178Z,55.72
2022-10-11T13:46:28.019Z,55.75
2022-10-11T13:47:31.697Z,56.92
2022-10-11T13:48:40.950Z,58.11
2022-10-11T13:49:50.430Z,59.81
2022-10-11T13:51:05.386Z,61.38
2022-10-11T13:52:20.121Z,63.21
2022-10-11T13:53:25.012Z,63.59
2022-10-11T13:54:53.245Z,62.66
2022-10-11T13:55:59.163Z,62.53
2022-10-11T13:57:02.052Z,64.07
2022-10-11T13:58:16.274Z,64.22
2022-10-11T13:59:23.732Z,63.98
2022-10-11T14:00:35.316Z,63.89
2022-10-11T14:01:45.116Z,64.30
2022-10-11T14:02:54.323Z,64.26
2022-10-11T14:04:00.118Z,64.47
2022-10-11T14:05:02.336Z,64.26
2022-10-11T14:06:05.166Z,65.36
2022-10-11T14:07:21.513Z,65.51
2022-10-11T14:08:39.030Z,65.65
2022-10-11T14:09:46.854Z,65.69
2022-10-11T14:10:55.653Z,65.45
2022-10-11T14:12:32.632Z,64.89
2022-10-11T14:13:41.416Z,65.81
2022-10-11T14:14:43.852Z,65.70
2022-10-11T14:15:46.018Z,66.41
2022-10-11T14:16:58.575Z,65.87
2022-10-11T14:18:03.135Z,65.76
2022-10-11T14:19:10.549Z,65.66
2022-10-11T14:20:21.083Z,65.20